Time;durP1;ratioP1;P1;durP2;ratioP2;P2;SDS_P1;SDS_P2;PMS_P1;PMS_P2;Temp;Humidity;BMP_temperature;BMP_pressure;BME280_temperature;BME280_humidity;BME280_pressure;Samples;Min_cycle;Max_cycle;Signal;HPM_P1;HPM_P2
2022/05/18 00:00:37;;;;;;;3.65;2.10;;;24.90;47.20;;;;;;5005089;28;20506;-49
2022/05/18 00:03:10;;;;;;;3.25;1.90;;;24.90;47.20;;;;;;5006158;28;20026;-54
2022/05/18 00:05:38;;;;;;;3.15;1.60;;;24.90;47.20;;;;;;5005738;28;20022;-49
2022/05/18 00:08:06;;;;;;;3.15;1.88;;;24.90;47.20;;;;;;5005124;28;20045;-49
2022/05/18 00:10:32;;;;;;;3.05;1.80;;;24.90;47.10;;;;;;5006045;28;20436;-49
2022/05/18 00:12:58;;;;;;;2.40;1.50;;;24.90;47.70;;;;;;5004309;28;20022;-50
2022/05/18 00:15:26;;;;;;;3.92;2.22;;;24.90;47.00;;;;;;5005887;28;20585;-49
2022/05/18 00:17:52;;;;;;;3.72;1.90;;;24.90;46.90;;;;;;5003940;28;20690;-50
2022/05/18 00:20:19;;;;;;;3.47;2.05;;;24.90;46.90;;;;;;5003728;28;20476;-50
2022/05/18 00:22:50;;;;;;;3.15;1.52;;;24.90;46.90;;;;;;5004572;28;20025;-50
2022/05/18 00:25:17;;;;;;;3.55;1.83;;;24.90;46.90;;;;;;5003137;28;20056;-50
2022/05/18 00:27:43;;;;;;;3.65;1.85;;;24.90;46.80;;;;;;5004789;28;20022;-50
2022/05/18 00:30:12;;;;;;;3.17;1.73;;;24.90;46.90;;;;;;5004017;28;20655;-50
2022/05/18 00:32:38;;;;;;;3.05;1.73;;;24.90;46.90;;;;;;5004057;28;20560;-50
2022/05/18 00:35:04;;;;;;;4.07;1.85;;;24.90;46.90;;;;;;5004775;28;20022;-50
2022/05/18 00:37:30;;;;;;;4.72;1.63;;;24.90;46.90;;;;;;5004649;28;20040;-51
2022/05/18 00:39:56;;;;;;;3.65;1.88;;;24.90;46.90;;;;;;5005242;28;20644;-50
2022/05/18 00:42:24;;;;;;;4.07;1.80;;;24.90;46.90;;;;;;5005440;28;20061;-50
2022/05/18 00:44:50;;;;;;;2.85;1.70;;;24.90;46.90;;;;;;5005482;28;20061;-51
2022/05/18 00:47:15;;;;;;;3.63;1.83;;;24.90;46.90;;;;;;5004905;28;20099;-50
2022/05/18 00:49:45;;;;;;;3.35;1.67;;;24.90;46.90;;;;;;5004703;28;20029;-50
2022/05/18 00:52:11;;;;;;;3.65;1.75;;;24.80;46.80;;;;;;5004582;28;20034;-50
2022/05/18 00:54:36;;;;;;;2.97;1.67;;;24.90;46.90;;;;;;5005309;28;20026;-50
2022/05/18 00:57:10;;;;;;;2.95;1.58;;;24.90;46.80;;;;;;5004796;28;20099;-50
2022/05/18 00:59:49;;;;;;;2.97;1.60;;;24.80;46.70;;;;;;5001550;28;20033;-50
2022/05/18 01:02:16;;;;;;;3.70;1.77;;;24.80;46.80;;;;;;5004595;28;20069;-50
2022/05/18 01:04:44;;;;;;;3.78;2.05;;;24.80;46.70;;;;;;5005015;28;20739;-50
2022/05/18 01:07:18;;;;;;;3.33;1.95;;;24.80;46.60;;;;;;5002255;28;20096;-50
2022/05/18 01:09:45;;;;;;;3.38;1.90;;;24.80;46.50;;;;;;5003677;28;20072;-50
2022/05/18 01:12:15;;;;;;;4.63;1.70;;;24.80;46.60;;;;;;5004781;28;20681;-50
2022/05/18 01:14:47;;;;;;;3.05;1.50;;;24.80;46.60;;;;;;5001872;28;20030;-50
2022/05/18 01:17:17;;;;;;;3.47;1.73;;;24.80;46.70;;;;;;5002454;28;20555;-50
2022/05/18 01:19:52;;;;;;;3.72;1.70;;;24.80;46.70;;;;;;5003746;28;20026;-50
2022/05/18 01:22:28;;;;;;;3.10;1.73;;;24.80;46.70;;;;;;5004554;28;20712;-50
2022/05/18 01:25:01;;;;;;;3.15;1.52;;;24.80;46.70;;;;;;5003552;28;20038;-50
2022/05/18 01:27:27;;;;;;;3.67;1.60;;;24.80;46.70;;;;;;5002994;28;20021;-50
2022/05/18 01:29:53;;;;;;;3.35;1.85;;;24.80;46.70;;;;;;5004250;28;20078;-50
2022/05/18 01:32:20;;;;;;;3.80;1.45;;;24.80;46.70;;;;;;5004568;28;20661;-50
2022/05/18 01:34:46;;;;;;;3.63;1.60;;;24.80;46.60;;;;;;5004317;28;20105;-50
2022/05/18 01:37:13;;;;;;;4.15;2.15;;;24.80;46.60;;;;;;5003590;28;20033;-50
2022/05/18 01:40:03;;;;;;;2.95;1.77;;;24.80;46.60;;;;;;5003634;28;20022;-50
2022/05/18 01:42:49;;;;;;;3.25;1.80;;;24.80;46.60;;;;;;5003558;28;20041;-50
2022/05/18 01:45:15;;;;;;;2.78;1.67;;;24.80;46.50;;;;;;5002702;28;20026;-50
2022/05/18 01:47:41;;;;;;;2.83;2.00;;;24.80;46.50;;;;;;5003935;28;20548;-50
2022/05/18 01:50:14;;;;;;;3.50;1.70;;;24.80;46.50;;;;;;5003511;28;20029;-50
2022/05/18 01:52:41;;;;;;;3.03;1.58;;;24.80;46.50;;;;;;5002590;28;20030;-50
2022/05/18 01:55:08;;;;;;;3.97;1.60;;;24.80;46.40;;;;;;5003697;28;20026;-50
2022/05/18 01:57:35;;;;;;;3.25;1.50;;;24.80;46.40;;;;;;5002221;28;20374;-49
2022/05/18 02:00:03;;;;;;;2.80;1.60;;;24.80;46.40;;;;;;5003343;28;20092;-49
2022/05/18 02:02:29;;;;;;;2.83;1.45;;;24.80;46.50;;;;;;5003266;28;20037;-50
2022/05/18 02:04:55;;;;;;;2.90;1.75;;;24.80;46.50;;;;;;5003760;28;20022;-50
2022/05/18 02:07:21;;;;;;;4.20;2.03;;;24.80;46.50;;;;;;5003473;28;20465;-50
2022/05/18 02:09:46;;;;;;;3.20;1.83;;;24.70;46.60;;;;;;5001885;28;20084;-50
2022/05/18 02:12:13;;;;;;;2.67;1.52;;;24.70;46.60;;;;;;5003622;28;20037;-50
2022/05/18 02:14:39;;;;;;;3.47;1.83;;;24.80;46.50;;;;;;5002332;28;20026;-50
2022/05/18 02:17:04;;;;;;;4.00;2.08;;;24.80;46.50;;;;;;5000144;28;20030;-50
2022/05/18 02:19:30;;;;;;;2.58;1.50;;;24.80;46.50;;;;;;5000786;28;20488;-50
2022/05/18 02:21:56;;;;;;;3.17;1.75;;;24.70;46.40;;;;;;5003483;28;20025;-50
2022/05/18 02:24:22;;;;;;;2.63;1.55;;;24.80;46.50;;;;;;5003380;28;20030;-49
2022/05/18 02:26:48;;;;;;;3.38;1.63;;;24.70;46.40;;;;;;5002528;28;20581;-49
2022/05/18 02:29:13;;;;;;;3.25;1.65;;;24.80;46.40;;;;;;5002411;28;20038;-50
2022/05/18 02:31:39;;;;;;;3.75;1.98;;;24.70;46.40;;;;;;5003114;28;20057;-50
2022/05/18 02:34:05;;;;;;;2.97;1.70;;;24.70;46.30;;;;;;5002129;28;20022;-50
2022/05/18 02:36:31;;;;;;;3.10;1.52;;;24.70;46.30;;;;;;5003282;28;20033;-51
2022/05/18 02:38:57;;;;;;;2.70;1.50;;;24.70;46.20;;;;;;5002988;28;20026;-50
2022/05/18 02:41:22;;;;;;;3.05;1.55;;;24.70;46.20;;;;;;5003170;28;20025;-50
2022/05/18 02:43:48;;;;;;;4.47;1.63;;;24.70;46.20;;;;;;5001019;28;20029;-50
2022/05/18 02:46:19;;;;;;;2.65;1.52;;;24.70;46.40;;;;;;5002861;28;20088;-50
2022/05/18 02:48:46;;;;;;;2.75;1.52;;;24.70;46.40;;;;;;5005011;28;20767;-50
2022/05/18 02:51:13;;;;;;;2.70;1.40;;;24.70;46.40;;;;;;5006902;28;20367;-50
2022/05/18 02:53:39;;;;;;;3.08;1.40;;;24.70;46.30;;;;;;5007138;28;20092;-50
2022/05/18 02:56:06;;;;;;;3.75;1.90;;;24.70;46.30;;;;;;5004454;28;20029;-50
2022/05/18 02:58:49;;;;;;;2.72;1.40;;;24.70;46.30;;;;;;5004821;28;20038;-50
2022/05/18 03:01:18;;;;;;;2.92;1.40;;;24.70;46.30;;;;;;5005269;28;20038;-51
2022/05/18 03:03:45;;;;;;;2.97;1.88;;;24.70;46.30;;;;;;5005473;28;20116;-50
2022/05/18 03:06:13;;;;;;;2.80;1.40;;;24.70;46.20;;;;;;5006550;28;20696;-50
2022/05/18 03:08:41;;;;;;;3.40;1.80;;;24.70;46.20;;;;;;5006496;28;20030;-50
2022/05/18 03:11:08;;;;;;;3.45;1.38;;;24.70;46.10;;;;;;5006680;28;20030;-50
2022/05/18 03:13:35;;;;;;;3.17;1.70;;;24.70;46.10;;;;;;5005427;28;20088;-50
2022/05/18 03:16:02;;;;;;;2.83;1.20;;;24.70;46.10;;;;;;5006807;28;20695;-50
2022/05/18 03:18:28;;;;;;;3.72;1.92;;;24.70;46.10;;;;;;5006092;28;20030;-50
2022/05/18 03:23:39;;;;;;;3.17;1.58;;;24.70;46.10;;;;;;5004865;28;20024;-50
2022/05/18 03:26:08;;;;;;;2.38;1.38;;;24.70;46.10;;;;;;5006031;28;20085;-50
2022/05/18 03:28:35;;;;;;;2.92;1.52;;;24.70;46.10;;;;;;5006295;28;20033;-51
2022/05/18 03:31:02;;;;;;;2.47;1.40;;;24.60;46.10;;;;;;5005446;28;20022;-50
2022/05/18 03:33:28;;;;;;;2.60;1.50;;;24.70;46.20;;;;;;5004438;28;20030;-50
2022/05/18 03:35:53;;;;;;;3.22;1.75;;;24.70;46.20;;;;;;5006399;28;20022;-50
2022/05/18 03:38:20;;;;;;;2.95;1.70;;;24.70;46.10;;;;;;5006562;28;20040;-49
2022/05/18 03:40:46;;;;;;;3.42;1.88;;;24.70;46.20;;;;;;5006532;28;20045;-51
2022/05/18 03:43:12;;;;;;;3.17;1.50;;;24.70;46.20;;;;;;5021584;28;20693;-50
2022/05/18 03:45:38;;;;;;;2.63;1.52;;;24.70;46.10;;;;;;5005914;28;20034;-50
2022/05/18 03:48:08;;;;;;;2.55;1.67;;;24.60;46.00;;;;;;5006125;28;20100;-50
2022/05/18 03:50:37;;;;;;;3.60;1.48;;;24.60;46.00;;;;;;5006528;28;20058;-50
2022/05/18 03:53:03;;;;;;;3.20;1.60;;;24.70;46.00;;;;;;5004377;28;20026;-51
2022/05/18 03:55:30;;;;;;;2.83;1.60;;;24.70;46.70;;;;;;5005202;28;20050;-50
2022/05/18 03:57:56;;;;;;;2.83;1.42;;;24.70;46.10;;;;;;5005235;28;20631;-50
2022/05/18 04:00:22;;;;;;;2.63;1.60;;;24.70;46.00;;;;;;5003865;28;20047;-50
2022/05/18 04:02:48;;;;;;;2.60;1.60;;;24.60;45.90;;;;;;5005663;28;20037;-50
2022/05/18 04:05:16;;;;;;;2.97;1.67;;;24.60;45.90;;;;;;5005462;28;20101;-50
2022/05/18 04:07:42;;;;;;;2.28;1.38;;;24.60;45.90;;;;;;5005808;28;20014;-51
2022/05/18 04:10:08;;;;;;;3.00;1.70;;;24.60;45.80;;;;;;5005813;28;20036;-50
2022/05/18 04:12:34;;;;;;;3.72;1.55;;;24.60;45.80;;;;;;5005778;28;20037;-50
2022/05/18 04:15:00;;;;;;;3.33;1.63;;;24.60;45.90;;;;;;5005368;28;20028;-50
2022/05/18 04:17:26;;;;;;;2.80;1.20;;;24.60;46.00;;;;;;5004676;28;20042;-50
2022/05/18 04:19:53;;;;;;;2.70;1.48;;;24.60;46.00;;;;;;5004056;28;20040;-50
2022/05/18 04:22:19;;;;;;;3.92;1.50;;;24.60;45.90;;;;;;5005573;28;20422;-50
2022/05/18 04:24:45;;;;;;;3.65;1.70;;;24.60;45.90;;;;;;5005473;28;20030;-50
2022/05/18 04:27:11;;;;;;;3.28;2.15;;;24.60;45.90;;;;;;5005313;28;20422;-50
2022/05/18 04:29:38;;;;;;;2.65;1.40;;;24.60;46.00;;;;;;5019976;28;20088;-50
2022/05/18 04:32:05;;;;;;;2.70;1.55;;;24.60;46.00;;;;;;5005697;28;20090;-50
2022/05/18 04:34:31;;;;;;;2.60;1.38;;;24.60;45.90;;;;;;5002467;28;20504;-51
2022/05/18 04:36:57;;;;;;;2.60;1.58;;;24.60;45.90;;;;;;5003588;28;20040;-50
2022/05/18 04:39:23;;;;;;;3.35;1.77;;;24.60;45.80;;;;;;5004843;28;20021;-50
2022/05/18 04:41:49;;;;;;;2.75;1.50;;;24.60;45.80;;;;;;5004877;28;20026;-50
2022/05/18 04:44:15;;;;;;;3.42;1.80;;;24.60;45.80;;;;;;5003691;28;20018;-50
2022/05/18 04:46:41;;;;;;;2.97;1.70;;;24.60;45.80;;;;;;5004016;28;20104;-49
2022/05/18 04:49:09;;;;;;;3.42;1.90;;;24.60;45.80;;;;;;5004412;28;20053;-49
2022/05/18 04:51:35;;;;;;;2.58;1.42;;;24.60;45.80;;;;;;5002762;28;20086;-50
2022/05/18 04:54:01;;;;;;;2.83;1.65;;;24.60;45.70;;;;;;5004966;28;20029;-50
2022/05/18 04:56:27;;;;;;;2.92;1.60;;;24.60;45.70;;;;;;5003787;28;20108;-50
2022/05/18 04:58:53;;;;;;;2.55;1.17;;;24.60;45.80;;;;;;5004130;28;20026;-50
2022/05/18 05:01:19;;;;;;;3.97;1.83;;;24.60;45.80;;;;;;5004588;28;20582;-50
2022/05/18 05:03:45;;;;;;;3.17;1.60;;;24.60;45.80;;;;;;5005292;28;20030;-51
2022/05/18 05:06:11;;;;;;;3.72;1.45;;;24.60;45.80;;;;;;5004423;28;20029;-50
2022/05/18 05:08:37;;;;;;;2.95;1.65;;;24.60;45.80;;;;;;5005205;28;20025;-49
2022/05/18 05:11:05;;;;;;;2.90;1.80;;;24.60;45.80;;;;;;5019196;28;20056;-50
2022/05/18 05:13:32;;;;;;;4.63;1.75;;;24.60;45.70;;;;;;5004139;28;20041;-50
2022/05/18 05:16:04;;;;;;;2.92;1.58;;;24.60;45.90;;;;;;5003336;28;20105;-50
2022/05/18 05:18:31;;;;;;;4.22;2.00;;;24.60;45.90;;;;;;5004337;28;20267;-50
2022/05/18 05:20:57;;;;;;;3.35;1.55;;;24.60;46.00;;;;;;5003585;28;20026;-51
2022/05/18 05:23:24;;;;;;;5.50;1.85;;;24.60;46.00;;;;;;5005061;28;20175;-50
2022/05/18 05:25:51;;;;;;;3.97;1.70;;;24.60;46.30;;;;;;5005007;28;20022;-52
2022/05/18 05:28:17;;;;;;;4.28;1.65;;;24.70;46.70;;;;;;5004718;28;20057;-51
2022/05/18 05:30:43;;;;;;;5.72;2.70;;;24.70;46.80;;;;;;5004645;28;20085;-52
2022/05/18 05:33:08;;;;;;;8.30;2.80;;;24.70;49.10;;;;;;5004512;28;20041;-50
2022/05/18 05:35:34;;;;;;;12.60;3.75;;;24.80;50.40;;;;;;5002856;28;20034;-52
2022/05/18 05:38:00;;;;;;;7.85;3.13;;;24.80;50.90;;;;;;5003885;28;20558;-52
2022/05/18 05:40:26;;;;;;;9.45;2.83;;;24.90;50.40;;;;;;5004361;28;20105;-51
2022/05/18 05:42:51;;;;;;;6.78;2.50;;;24.90;50.20;;;;;;5004902;28;20371;-53
2022/05/18 05:45:17;;;;;;;5.70;2.78;;;25.00;50.00;;;;;;5001729;28;20485;-48
2022/05/18 05:47:43;;;;;;;6.03;2.20;;;24.90;50.30;;;;;;5004424;28;20026;-47
2022/05/18 05:50:09;;;;;;;4.72;1.90;;;25.00;49.80;;;;;;5004439;28;20064;-48
2022/05/18 05:52:35;;;;;;;6.05;2.10;;;25.00;50.20;;;;;;5004414;28;20034;-49
2022/05/18 05:55:00;;;;;;;6.60;3.05;;;25.00;49.30;;;;;;4998881;28;20034;-49
2022/05/18 05:57:27;;;;;;;6.28;2.45;;;25.00;50.30;;;;;;4994441;28;20679;-48
2022/05/18 05:59:52;;;;;;;6.28;2.00;;;25.00;50.20;;;;;;4993191;28;20467;-48
2022/05/18 06:02:19;;;;;;;7.30;2.40;;;25.00;50.60;;;;;;5005076;28;20050;-51
2022/05/18 06:04:46;;;;;;;7.28;2.17;;;25.00;51.10;;;;;;5004112;28;20029;-51
2022/05/18 06:07:13;;;;;;;8.20;2.40;;;25.00;50.30;;;;;;5003839;28;20026;-51
2022/05/18 06:09:40;;;;;;;7.90;2.75;;;25.00;50.10;;;;;;5004365;28;20084;-50
2022/05/18 06:12:06;;;;;;;8.00;2.80;;;25.00;50.00;;;;;;5004028;28;20036;-49
2022/05/18 06:14:32;;;;;;;5.85;2.10;;;25.10;49.90;;;;;;5003931;28;20506;-50
2022/05/18 06:16:58;;;;;;;5.72;2.33;;;25.10;49.80;;;;;;5003863;28;20033;-50
2022/05/18 06:19:23;;;;;;;5.82;2.53;;;25.10;49.70;;;;;;5004183;28;20022;-50
2022/05/18 06:21:50;;;;;;;6.85;2.42;;;25.10;49.70;;;;;;5003671;28;20022;-51
2022/05/18 06:24:18;;;;;;;4.88;2.25;;;25.10;49.30;;;;;;5003655;28;20022;-50
2022/05/18 06:26:44;;;;;;;6.38;2.80;;;25.10;48.90;;;;;;5004163;28;20065;-51
2022/05/18 06:29:10;;;;;;;5.85;2.22;;;25.10;48.60;;;;;;5004426;28;20033;-50
2022/05/18 06:31:36;;;;;;;5.47;2.30;;;25.10;48.50;;;;;;5004564;28;20080;-51
2022/05/18 06:34:01;;;;;;;4.85;2.17;;;25.10;48.20;;;;;;5004749;28;20058;-51
2022/05/18 06:36:28;;;;;;;5.03;2.35;;;25.10;48.20;;;;;;5004211;28;20026;-51
2022/05/18 06:38:53;;;;;;;5.68;2.40;;;25.10;48.20;;;;;;5004978;28;20042;-51
2022/05/18 06:41:22;;;;;;;4.47;2.33;;;25.10;48.10;;;;;;5005030;28;20468;-51
2022/05/18 06:43:57;;;;;;;4.60;2.00;;;25.10;48.10;;;;;;5004671;28;20034;-51
2022/05/18 06:46:24;;;;;;;4.82;2.25;;;25.20;48.00;;;;;;5004562;28;20096;-50
2022/05/18 06:48:50;;;;;;;3.35;1.67;;;25.20;47.90;;;;;;5004293;28;20087;-51
2022/05/18 06:51:19;;;;;;;3.65;1.80;;;25.20;47.90;;;;;;5004308;28;20041;-51
2022/05/18 06:53:46;;;;;;;3.08;1.67;;;25.20;47.90;;;;;;5004969;28;20481;-50
2022/05/18 06:56:12;;;;;;;2.97;1.50;;;25.20;47.80;;;;;;5004560;28;20034;-51
2022/05/18 06:58:38;;;;;;;3.30;1.75;;;25.20;47.70;;;;;;5004601;28;20161;-51
2022/05/18 07:01:06;;;;;;;3.60;1.80;;;25.10;47.70;;;;;;5004571;28;20095;-51
2022/05/18 07:03:31;;;;;;;3.70;1.58;;;25.20;47.70;;;;;;5004145;28;20026;-51
2022/05/18 07:05:57;;;;;;;3.25;1.60;;;25.10;47.70;;;;;;5004432;28;20084;-51
2022/05/18 07:08:23;;;;;;;3.00;1.48;;;25.10;47.60;;;;;;4991219;28;20046;-51
2022/05/18 07:10:49;;;;;;;2.78;1.58;;;25.10;47.60;;;;;;4985318;28;20502;-50
2022/05/18 07:13:16;;;;;;;3.90;1.63;;;25.10;47.60;;;;;;4985318;28;20102;-51
2022/05/18 07:15:44;;;;;;;3.78;1.60;;;25.20;47.50;;;;;;5016904;28;20066;-51
2022/05/18 07:18:10;;;;;;;3.47;1.75;;;25.20;47.50;;;;;;5004405;28;20022;-51
2022/05/18 07:20:35;;;;;;;2.97;1.65;;;25.20;47.50;;;;;;5004399;28;20477;-51
2022/05/18 07:23:01;;;;;;;3.38;1.70;;;25.20;47.50;;;;;;5004342;28;20026;-51
2022/05/18 07:25:27;;;;;;;2.80;1.65;;;25.20;47.50;;;;;;5004756;28;20029;-51
2022/05/18 07:27:53;;;;;;;2.72;1.52;;;25.20;47.50;;;;;;5004358;28;20034;-51
2022/05/18 07:30:19;;;;;;;3.42;1.77;;;25.20;47.40;;;;;;5004412;28;20096;-51
2022/05/18 07:32:44;;;;;;;4.55;2.17;;;25.20;47.50;;;;;;5004422;28;20033;-51
2022/05/18 07:35:10;;;;;;;4.65;2.40;;;25.20;47.40;;;;;;5007082;28;20233;-51
2022/05/18 07:37:37;;;;;;;2.88;1.45;;;25.20;47.50;;;;;;5007844;28;20043;-51
2022/05/18 07:40:03;;;;;;;3.00;1.30;;;25.20;47.40;;;;;;5008018;28;20743;-51
2022/05/18 07:42:29;;;;;;;3.50;1.75;;;25.20;47.50;;;;;;5008355;28;20052;-51
2022/05/18 07:44:55;;;;;;;3.55;1.55;;;25.20;47.40;;;;;;5007129;28;20026;-51
2022/05/18 07:47:31;;;;;;;3.47;1.55;;;25.20;47.40;;;;;;5006806;28;20049;-51
2022/05/18 07:49:57;;;;;;;3.08;1.52;;;25.20;48.10;;;;;;5008051;28;20307;-51
2022/05/18 07:52:24;;;;;;;2.40;1.20;;;25.20;47.40;;;;;;5007019;28;20022;-51
2022/05/18 07:54:50;;;;;;;3.28;1.70;;;25.10;47.30;;;;;;5007871;28;20669;-51
2022/05/18 07:57:17;;;;;;;4.28;1.73;;;25.10;47.30;;;;;;5007540;28;20566;-51
2022/05/18 07:59:43;;;;;;;3.42;1.50;;;25.20;47.40;;;;;;5007380;28;20037;-51
2022/05/18 08:02:09;;;;;;;3.30;1.38;;;25.20;47.30;;;;;;5007415;28;20634;-51
2022/05/18 08:04:35;;;;;;;2.83;1.52;;;25.20;47.20;;;;;;5007801;28;20046;-51
2022/05/18 08:07:00;;;;;;;2.72;1.40;;;25.10;47.30;;;;;;5007057;28;20026;-51
2022/05/18 08:09:26;;;;;;;4.88;1.77;;;25.10;47.20;;;;;;4992066;28;20517;-51
2022/05/18 08:17:21;;;;;;;2.03;1.17;;;25.20;47.20;;;;;;5007002;28;20064;-50
2022/05/18 08:19:47;;;;;;;3.28;1.55;;;25.10;47.20;;;;;;5007342;28;20065;-51
2022/05/18 08:22:14;;;;;;;3.30;1.77;;;25.20;47.20;;;;;;5005925;28;20096;-50
2022/05/18 08:24:40;;;;;;;2.95;1.35;;;25.20;47.20;;;;;;5007486;28;20117;-51
2022/05/18 08:27:13;;;;;;;2.75;1.30;;;25.20;47.90;;;;;;5006977;28;20026;-51
2022/05/18 08:29:38;;;;;;;;;;;25.20;47.20;;;;;;5007354;28;20053;-50
2022/05/18 08:32:04;;;;;;;3.08;1.48;;;25.20;47.20;;;;;;5007611;28;19993;-51
2022/05/18 08:34:30;;;;;;;2.95;1.45;;;25.20;47.20;;;;;;5006992;28;20095;-50
2022/05/18 08:36:56;;;;;;;3.55;1.73;;;25.20;47.20;;;;;;5006737;28;20037;-50
2022/05/18 08:39:22;;;;;;;2.20;1.15;;;25.20;47.20;;;;;;5006628;28;20468;-51
2022/05/18 08:41:50;;;;;;;3.10;1.38;;;25.10;47.20;;;;;;5006720;28;20030;-51
2022/05/18 08:44:36;;;;;;;2.55;1.40;;;25.20;47.20;;;;;;5006216;28;20089;-51
2022/05/18 08:47:46;;;;;;;2.60;1.45;;;25.20;47.20;;;;;;5006021;28;20037;-51
2022/05/18 08:50:15;;;;;;;2.15;1.20;;;25.10;47.20;;;;;;5001595;28;20062;-51
2022/05/18 08:53:02;;;;;;;2.95;1.40;;;25.10;47.10;;;;;;5006052;28;20022;-51
2022/05/18 08:55:53;;;;;;;2.50;1.20;;;25.10;47.20;;;;;;5006512;28;20029;-51
2022/05/18 08:58:35;;;;;;;2.70;1.27;;;25.10;47.10;;;;;;5006588;28;20026;-51
2022/05/18 09:01:10;;;;;;;2.70;1.38;;;25.10;47.20;;;;;;5006738;28;20037;-51
2022/05/18 09:03:43;;;;;;;2.63;1.40;;;25.10;47.10;;;;;;5005899;28;20657;-51
2022/05/18 09:06:39;;;;;;;2.83;1.25;;;25.10;47.10;;;;;;5005814;28;20069;-52
2022/05/18 09:10:24;;;;;;;4.00;1.50;;;25.10;47.10;;;;;;4999656;28;20023;-51
2022/05/18 09:12:24;;;;;;;2.70;1.33;;;25.10;47.10;;;;;;4986343;28;20096;-51
2022/05/18 09:14:52;;;;;;;2.55;1.23;;;25.10;47.10;;;;;;4994210;28;20292;-51
2022/05/18 09:18:10;;;;;;;2.80;1.38;;;25.10;47.10;;;;;;5005389;28;20037;-51
2022/05/18 09:20:45;;;;;;;2.45;1.23;;;25.10;47.10;;;;;;5003998;28;20073;-51
2022/05/18 09:23:17;;;;;;;2.72;1.27;;;25.10;47.10;;;;;;5005205;28;20487;-51
2022/05/18 09:26:09;;;;;;;2.15;1.15;;;25.10;47.10;;;;;;5006512;28;20210;-51
2022/05/18 09:29:04;;;;;;;2.55;1.17;;;25.10;47.10;;;;;;5006060;28;20662;-51
2022/05/18 09:31:47;;;;;;;3.28;1.40;;;25.10;47.10;;;;;;5006059;28;20076;-51
2022/05/18 09:34:33;;;;;;;2.50;1.30;;;25.10;47.00;;;;;;5005649;28;20053;-52
2022/05/18 09:37:36;;;;;;;2.65;1.50;;;25.10;47.00;;;;;;5005337;28;20029;-51
2022/05/18 09:40:38;;;;;;;2.08;1.10;;;25.10;47.00;;;;;;5005577;28;20034;-51
2022/05/18 09:43:10;;;;;;;2.35;1.27;;;25.10;47.00;;;;;;5005751;28;20034;-51
2022/05/18 09:45:41;;;;;;;2.35;1.30;;;25.10;47.00;;;;;;5005707;28;20314;-51
2022/05/18 09:48:13;;;;;;;2.33;1.20;;;25.10;47.00;;;;;;5005234;28;20057;-51
2022/05/18 09:50:41;;;;;;;2.25;1.20;;;25.10;46.90;;;;;;5005916;28;20030;-51
2022/05/18 09:53:08;;;;;;;2.85;1.30;;;25.10;46.90;;;;;;5005269;28;20026;-52
2022/05/18 09:55:34;;;;;;;2.20;1.20;;;25.10;46.90;;;;;;5005050;28;20049;-51
2022/05/18 09:58:03;;;;;;;1.73;1.05;;;25.10;46.90;;;;;;5004371;28;20025;-51
2022/05/18 10:00:32;;;;;;;2.70;1.35;;;25.10;46.90;;;;;;5005175;28;20036;-51
2022/05/18 10:08:56;;;;;;;2.15;1.00;;;25.10;46.90;;;;;;5005327;28;20030;-52
2022/05/18 10:11:34;;;;;;;2.13;1.13;;;25.10;47.00;;;;;;4994417;28;20038;-51
2022/05/18 10:14:08;;;;;;;2.50;1.02;;;25.10;47.00;;;;;;4985576;28;20109;-51
2022/05/18 10:16:49;;;;;;;2.17;1.13;;;25.10;46.90;;;;;;5002775;28;20030;-51
2022/05/18 10:19:27;;;;;;;2.50;1.20;;;25.10;46.90;;;;;;5005011;28;20062;-51
2022/05/18 10:22:05;;;;;;;2.20;1.23;;;25.10;46.90;;;;;;5005201;28;20034;-51
2022/05/18 10:24:47;;;;;;;1.90;0.90;;;25.10;46.80;;;;;;5004911;28;20525;-51
2022/05/18 10:27:16;;;;;;;2.38;1.08;;;25.10;46.80;;;;;;5004580;28;20034;-51
2022/05/18 10:29:44;;;;;;;2.70;1.20;;;25.10;46.80;;;;;;5004898;28;20569;-51
2022/05/18 10:32:23;;;;;;;2.38;1.20;;;25.10;46.80;;;;;;5005059;28;20061;-51
2022/05/18 10:34:51;;;;;;;1.75;0.90;;;25.10;46.80;;;;;;5005026;28;20500;-51
2022/05/18 10:37:43;;;;;;;1.50;0.80;;;25.10;46.70;;;;;;5004904;28;20030;-51
2022/05/18 10:40:09;;;;;;;2.35;1.00;;;25.10;46.80;;;;;;5004023;28;20422;-51
2022/05/18 10:42:50;;;;;;;2.28;1.13;;;25.20;46.70;;;;;;5005014;28;20049;-51
2022/05/18 10:45:25;;;;;;;2.22;1.10;;;25.10;46.80;;;;;;5003602;28;20026;-51
2022/05/18 10:47:53;;;;;;;2.35;1.00;;;25.10;46.80;;;;;;5004771;28;20033;-51
2022/05/18 10:50:25;;;;;;;1.65;0.80;;;25.20;46.80;;;;;;5005104;28;20030;-51
2022/05/18 10:53:17;;;;;;;1.75;0.82;;;25.10;46.70;;;;;;5004887;28;20510;-51
2022/05/18 10:56:27;;;;;;;1.60;0.80;;;25.10;46.70;;;;;;5004841;28;20708;-51
2022/05/18 10:59:12;;;;;;;1.92;0.98;;;25.10;46.70;;;;;;4998030;28;20058;-50
2022/05/18 11:01:48;;;;;;;1.83;1.00;;;25.20;46.60;;;;;;4975494;28;20050;-50
2022/05/18 11:04:26;;;;;;;3.17;1.30;;;25.10;46.60;;;;;;5004639;28;20026;-51
2022/05/18 11:06:53;;;;;;;1.73;0.90;;;25.10;46.60;;;;;;5004911;28;20764;-51
2022/05/18 11:09:29;;;;;;;2.63;0.95;;;25.10;46.60;;;;;;5006893;28;20102;-51
2022/05/18 11:12:14;;;;;;;2.75;1.23;;;25.10;46.70;;;;;;5008769;28;20022;-51
2022/05/18 11:14:58;;;;;;;1.58;0.73;;;25.20;46.60;;;;;;5007880;28;20053;-50
2022/05/18 11:17:45;;;;;;;2.63;1.10;;;25.10;46.60;;;;;;5007000;28;20038;-51
2022/05/18 11:20:29;;;;;;;2.38;1.10;;;25.20;46.60;;;;;;5008065;28;20513;-51
2022/05/18 11:23:29;;;;;;;2.40;1.17;;;25.20;46.60;;;;;;5007904;28;20052;-51
2022/05/18 11:26:07;;;;;;;1.88;0.90;;;25.20;46.60;;;;;;5007956;28;20073;-52
2022/05/18 11:28:37;;;;;;;2.15;0.90;;;25.20;46.50;;;;;;5007854;28;20030;-51
2022/05/18 11:31:31;;;;;;;1.50;0.82;;;25.20;46.60;;;;;;5008026;28;20060;-52
2022/05/18 11:34:29;;;;;;;1.90;0.93;;;25.20;46.60;;;;;;4989302;28;20045;-51
2022/05/18 11:37:28;;;;;;;2.45;0.95;;;25.20;46.60;;;;;;4988389;28;20023;-51
2022/05/18 11:40:20;;;;;;;1.50;0.85;;;25.20;46.50;;;;;;4987967;28;20495;-51
2022/05/18 11:43:25;;;;;;;1.65;0.80;;;25.20;46.50;;;;;;4988712;28;20427;-51
2022/05/18 11:46:09;;;;;;;2.03;0.80;;;25.20;46.50;;;;;;5001693;28;20040;-52
2022/05/18 11:48:49;;;;;;;1.70;0.82;;;25.30;46.70;;;;;;5008082;28;20060;-52
2022/05/18 11:51:35;;;;;;;1.60;0.68;;;25.30;46.60;;;;;;5007466;28;20687;-51
2022/05/18 11:54:19;;;;;;;1.95;1.05;;;25.30;46.60;;;;;;5008080;28;20030;-51
2022/05/18 11:57:07;;;;;;;1.77;1.00;;;25.30;46.60;;;;;;5007194;28;20029;-51
2022/05/18 12:00:43;;;;;;;2.60;0.98;;;25.30;46.60;;;;;;5005521;28;20057;-51
2022/05/18 12:03:24;;;;;;;1.90;0.77;;;25.30;46.70;;;;;;4975725;28;20446;-51
2022/05/18 12:06:00;;;;;;;1.65;0.93;;;25.30;46.70;;;;;;5007375;28;20034;-51
2022/05/18 12:08:53;;;;;;;2.25;0.90;;;25.30;46.70;;;;;;5007330;28;20042;-51
2022/05/18 12:11:30;;;;;;;1.65;0.80;;;25.30;46.80;;;;;;5007735;28;20113;-51
2022/05/18 12:14:23;;;;;;;1.90;0.70;;;25.40;46.70;;;;;;5007496;28;20022;-51
2022/05/18 12:17:05;;;;;;;1.27;0.80;;;25.40;46.70;;;;;;4991232;28;20026;-51
2022/05/18 12:19:50;;;;;;;1.35;0.75;;;25.40;46.70;;;;;;4986619;28;20034;-51
2022/05/18 12:22:31;;;;;;;1.63;0.80;;;25.40;46.70;;;;;;4987809;28;20069;-52
2022/05/18 12:24:58;;;;;;;1.75;0.80;;;25.40;46.70;;;;;;4987553;28;20053;-51
2022/05/18 12:27:26;;;;;;;1.63;0.73;;;25.40;46.70;;;;;;4987309;28;20027;-51
2022/05/18 12:29:56;;;;;;;2.08;0.95;;;25.50;46.60;;;;;;4992345;28;20025;-52
2022/05/18 12:32:24;;;;;;;1.65;0.77;;;25.50;46.60;;;;;;5007060;28;20486;-51
2022/05/18 12:35:10;;;;;;;1.65;0.77;;;25.50;46.60;;;;;;5006813;28;20045;-51
2022/05/18 12:37:52;;;;;;;1.50;0.80;;;25.50;46.50;;;;;;5006734;28;20030;-51
2022/05/18 12:40:43;;;;;;;1.43;0.67;;;25.60;46.50;;;;;;5006614;28;20037;-51
2022/05/18 12:43:12;;;;;;;1.42;0.70;;;25.50;46.40;;;;;;5003842;28;20040;-52
2022/05/18 12:45:48;;;;;;;1.60;0.70;;;25.60;46.50;;;;;;5006741;28;20022;-51
2022/05/18 12:48:33;;;;;;;1.27;0.60;;;25.60;46.40;;;;;;5006468;28;20033;-51
2022/05/18 12:50:58;;;;;;;1.33;0.70;;;25.60;46.40;;;;;;5006515;28;20022;-51
2022/05/18 12:53:30;;;;;;;1.20;0.60;;;25.70;46.40;;;;;;5006618;28;20048;-51
2022/05/18 12:56:05;;;;;;;1.27;0.73;;;25.70;46.30;;;;;;5006455;28;20682;-51
2022/05/18 12:58:44;;;;;;;1.70;0.70;;;25.70;46.30;;;;;;5006326;28;20235;-51
2022/05/18 13:01:19;;;;;;;1.23;0.77;;;25.70;46.30;;;;;;5006103;28;20517;-51
2022/05/18 13:03:50;;;;;;;1.08;0.63;;;25.70;46.20;;;;;;5006353;28;20133;-52
2022/05/18 13:06:36;;;;;;;0.80;0.50;;;25.70;46.20;;;;;;5006256;28;20034;-51
2022/05/18 13:09:03;;;;;;;1.55;0.80;;;25.70;46.20;;;;;;5002198;28;20037;-51
2022/05/18 13:11:44;;;;;;;1.48;0.82;;;25.80;46.20;;;;;;5006378;28;20106;-51
2022/05/18 13:14:20;;;;;;;1.77;0.82;;;25.70;46.20;;;;;;5006419;28;20108;-51
2022/05/18 13:16:48;;;;;;;1.45;0.70;;;25.80;46.20;;;;;;5004716;28;20034;-52
2022/05/18 13:19:14;;;;;;;1.27;0.68;;;25.80;46.20;;;;;;5002235;28;20482;-51
2022/05/18 13:21:45;;;;;;;1.33;0.70;;;25.80;46.10;;;;;;5006222;28;20044;-52
2022/05/18 13:24:17;;;;;;;1.52;0.70;;;25.80;46.10;;;;;;5006099;28;20394;-51